sensor_id;sensor_type;location;lat;lon;timestamp;pressure;altitude;pressure_sealevel;temperature;humidity
60019;BME280;45870;42.528;26.740;2023-02-15T00:01:19;100903.88;;;9.53;40.93
60019;BME280;45870;42.528;26.740;2023-02-15T00:03:44;100902.72;;;9.35;41.82
60019;BME280;45870;42.528;26.740;2023-02-15T00:06:12;100834.72;;;8.49;42.68
60019;BME280;45870;42.528;26.740;2023-02-15T00:08:38;100907.75;;;9.44;41.17
60019;BME280;45870;42.528;26.740;2023-02-15T00:11:10;100872.69;;;9.38;40.99
60019;BME280;45870;42.528;26.740;2023-02-15T00:13:37;100830.63;;;8.81;41.76
60019;BME280;45870;42.528;26.740;2023-02-15T00:16:09;100895.53;;;9.42;40.94
60019;BME280;45870;42.528;26.740;2023-02-15T00:18:35;100893.16;;;9.60;40.78
60019;BME280;45870;42.528;26.740;2023-02-15T00:21:05;100887.94;;;9.59;41.41
60019;BME280;45870;42.528;26.740;2023-02-15T00:23:31;100879.06;;;9.30;41.61
60019;BME280;45870;42.528;26.740;2023-02-15T00:26:08;100890.09;;;9.08;41.81
60019;BME280;45870;42.528;26.740;2023-02-15T00:28:35;100895.84;;;9.60;40.89
60019;BME280;45870;42.528;26.740;2023-02-15T00:31:11;100894.00;;;10.62;38.76
60019;BME280;45870;42.528;26.740;2023-02-15T00:33:38;100906.88;;;10.06;39.38
60019;BME280;45870;42.528;26.740;2023-02-15T00:36:05;100911.88;;;10.09;39.20
60019;BME280;45870;42.528;26.740;2023-02-15T00:38:32;100907.28;;;9.34;41.30
60019;BME280;45870;42.528;26.740;2023-02-15T00:40:59;100900.63;;;9.30;41.35
60019;BME280;45870;42.528;26.740;2023-02-15T00:43:26;100906.47;;;10.09;39.56
60019;BME280;45870;42.528;26.740;2023-02-15T00:45:52;100915.13;;;9.98;39.96
60019;BME280;45870;42.528;26.740;2023-02-15T00:48:18;100903.31;;;9.99;39.48
60019;BME280;45870;42.528;26.740;2023-02-15T00:50:45;100907.53;;;11.15;37.52
60019;BME280;45870;42.528;26.740;2023-02-15T00:53:12;100896.13;;;9.10;41.22
60019;BME280;45870;42.528;26.740;2023-02-15T00:55:37;100909.63;;;9.44;40.08
60019;BME280;45870;42.528;26.740;2023-02-15T00:58:05;100902.25;;;9.25;40.84
60019;BME280;45870;42.528;26.740;2023-02-15T01:00:31;100908.50;;;9.04;41.87
60019;BME280;45870;42.528;26.740;2023-02-15T01:02:57;100896.53;;;8.64;42.86
60019;BME280;45870;42.528;26.740;2023-02-15T01:05:23;100892.22;;;9.19;41.81
60019;BME280;45870;42.528;26.740;2023-02-15T01:07:49;100881.53;;;8.55;42.43
60019;BME280;45870;42.528;26.740;2023-02-15T01:10:15;100894.00;;;9.05;42.00
60019;BME280;45870;42.528;26.740;2023-02-15T01:12:40;100890.03;;;8.59;42.76
60019;BME280;45870;42.528;26.740;2023-02-15T01:15:06;100852.75;;;8.34;42.64
60019;BME280;45870;42.528;26.740;2023-02-15T01:17:32;100896.91;;;8.25;43.62
60019;BME280;45870;42.528;26.740;2023-02-15T01:19:58;100909.75;;;9.08;41.65
60019;BME280;45870;42.528;26.740;2023-02-15T01:22:24;100903.88;;;8.98;41.84
60019;BME280;45870;42.528;26.740;2023-02-15T01:24:51;100901.03;;;8.57;42.77
60019;BME280;45870;42.528;26.740;2023-02-15T01:27:16;100844.25;;;7.95;43.18
60019;BME280;45870;42.528;26.740;2023-02-15T01:29:42;100905.22;;;8.09;44.13
60019;BME280;45870;42.528;26.740;2023-02-15T01:32:08;100910.84;;;8.29;43.15
60019;BME280;45870;42.528;26.740;2023-02-15T01:34:34;100912.41;;;8.59;42.46
60019;BME280;45870;42.528;26.740;2023-02-15T01:36:59;100912.59;;;8.36;42.87
60019;BME280;45870;42.528;26.740;2023-02-15T01:39:25;100923.94;;;9.79;40.04
60019;BME280;45870;42.528;26.740;2023-02-15T01:41:51;100911.41;;;8.81;41.71
60019;BME280;45870;42.528;26.740;2023-02-15T01:47:13;100907.38;;;7.84;44.56
60019;BME280;45870;42.528;26.740;2023-02-15T01:49:40;100906.44;;;7.92;44.46
60019;BME280;45870;42.528;26.740;2023-02-15T01:52:09;100912.06;;;8.12;43.80
60019;BME280;45870;42.528;26.740;2023-02-15T01:54:38;100888.28;;;7.50;45.10
60019;BME280;45870;42.528;26.740;2023-02-15T01:57:10;100912.53;;;8.00;44.17
60019;BME280;45870;42.528;26.740;2023-02-15T01:59:37;100911.00;;;9.06;41.28
60019;BME280;45870;42.528;26.740;2023-02-15T02:02:05;100912.22;;;8.39;42.57
60019;BME280;45870;42.528;26.740;2023-02-15T02:04:48;100892.72;;;8.37;42.69
60019;BME280;45870;42.528;26.740;2023-02-15T02:07:15;100910.44;;;8.68;41.67
60019;BME280;45870;42.528;26.740;2023-02-15T02:09:42;100893.72;;;9.49;39.51
60019;BME280;45870;42.528;26.740;2023-02-15T02:12:09;100916.59;;;9.60;39.57
60019;BME280;45870;42.528;26.740;2023-02-15T02:14:36;100714.88;;;8.04;39.85
60019;BME280;45870;42.528;26.740;2023-02-15T02:17:12;100907.09;;;10.91;35.85
60019;BME280;45870;42.528;26.740;2023-02-15T02:31:31;100926.94;;;8.79;40.29
60019;BME280;45870;42.528;26.740;2023-02-15T02:34:14;100932.97;;;9.09;39.38
60019;BME280;45870;42.528;26.740;2023-02-15T02:42:12;100936.78;;;8.93;38.96
60019;BME280;45870;42.528;26.740;2023-02-15T02:44:44;100948.72;;;8.48;40.48
60019;BME280;45870;42.528;26.740;2023-02-15T02:47:19;100944.94;;;8.79;40.30
60019;BME280;45870;42.528;26.740;2023-02-15T02:49:58;100950.19;;;9.36;38.99
60019;BME280;45870;42.528;26.740;2023-02-15T02:52:48;100752.47;;;8.40;38.23
60019;BME280;45870;42.528;26.740;2023-02-15T02:55:22;100951.28;;;9.41;37.23
60019;BME280;45870;42.528;26.740;2023-02-15T03:00:25;100960.34;;;9.34;37.78
60019;BME280;45870;42.528;26.740;2023-02-15T03:02:56;100957.94;;;9.73;37.43
60019;BME280;45870;42.528;26.740;2023-02-15T03:05:31;100974.28;;;9.72;38.60
60019;BME280;45870;42.528;26.740;2023-02-15T03:08:00;100971.50;;;9.86;38.77
60019;BME280;45870;42.528;26.740;2023-02-15T03:10:31;100976.00;;;10.14;37.88
60019;BME280;45870;42.528;26.740;2023-02-15T03:12:59;100743.94;;;8.92;36.85
60019;BME280;45870;42.528;26.740;2023-02-15T03:15:31;100970.19;;;10.51;37.27
60019;BME280;45870;42.528;26.740;2023-02-15T03:18:22;100939.63;;;10.44;36.58
60019;BME280;45870;42.528;26.740;2023-02-15T03:20:50;100986.13;;;10.46;37.40
60019;BME280;45870;42.528;26.740;2023-02-15T03:23:20;100975.75;;;10.49;36.75
60019;BME280;45870;42.528;26.740;2023-02-15T03:25:52;100934.00;;;10.39;35.68
60019;BME280;45870;42.528;26.740;2023-02-15T03:28:22;100977.31;;;10.72;36.62
60019;BME280;45870;42.528;26.740;2023-02-15T03:30:53;100977.69;;;10.62;35.99
60019;BME280;45870;42.528;26.740;2023-02-15T03:33:23;100981.84;;;9.55;36.16
60019;BME280;45870;42.528;26.740;2023-02-15T03:35:58;100988.78;;;10.33;34.94
60019;BME280;45870;42.528;26.740;2023-02-15T03:38:33;100995.13;;;10.60;34.79
60019;BME280;45870;42.528;26.740;2023-02-15T03:41:02;100993.69;;;10.77;35.11
60019;BME280;45870;42.528;26.740;2023-02-15T03:43:44;100975.66;;;10.84;34.23
60019;BME280;45870;42.528;26.740;2023-02-15T03:48:51;100975.47;;;10.85;35.79
60019;BME280;45870;42.528;26.740;2023-02-15T03:51:21;100991.91;;;10.97;34.42
60019;BME280;45870;42.528;26.740;2023-02-15T03:54:02;100993.78;;;11.10;34.69
60019;BME280;45870;42.528;26.740;2023-02-15T03:56:29;100966.91;;;10.69;35.40
60019;BME280;45870;42.528;26.740;2023-02-15T03:58:55;100999.75;;;10.79;35.00
60019;BME280;45870;42.528;26.740;2023-02-15T04:01:50;101006.16;;;10.65;35.82
60019;BME280;45870;42.528;26.740;2023-02-15T04:04:28;100808.19;;;9.71;34.71
60019;BME280;45870;42.528;26.740;2023-02-15T04:06:55;100954.00;;;10.64;34.24
60019;BME280;45870;42.528;26.740;2023-02-15T04:09:21;101014.28;;;10.84;35.33
60019;BME280;45870;42.528;26.740;2023-02-15T04:12:05;101003.63;;;10.63;35.54
60019;BME280;45870;42.528;26.740;2023-02-15T04:14:31;101002.28;;;10.87;35.24
60019;BME280;45870;42.528;26.740;2023-02-15T04:17:15;101002.88;;;10.82;35.11
60019;BME280;45870;42.528;26.740;2023-02-15T04:19:41;101018.41;;;10.67;36.23
60019;BME280;45870;42.528;26.740;2023-02-15T04:22:25;101022.25;;;10.45;36.35
60019;BME280;45870;42.528;26.740;2023-02-15T04:25:09;101008.47;;;10.20;37.06
60019;BME280;45870;42.528;26.740;2023-02-15T04:27:35;101006.72;;;10.53;36.23
60019;BME280;45870;42.528;26.740;2023-02-15T04:30:01;101019.50;;;10.79;36.71
60019;BME280;45870;42.528;26.740;2023-02-15T04:32:27;101020.34;;;10.86;35.43
60019;BME280;45870;42.528;26.740;2023-02-15T04:34:52;101014.81;;;10.53;36.32
60019;BME280;45870;42.528;26.740;2023-02-15T04:37:18;101027.34;;;10.68;36.23
60019;BME280;45870;42.528;26.740;2023-02-15T04:39:44;100968.47;;;10.43;35.70
60019;BME280;45870;42.528;26.740;2023-02-15T04:42:09;101045.72;;;10.98;35.71
60019;BME280;45870;42.528;26.740;2023-02-15T04:44:35;101029.09;;;10.95;35.70
60019;BME280;45870;42.528;26.740;2023-02-15T04:47:01;101043.00;;;10.92;36.52
60019;BME280;45870;42.528;26.740;2023-02-15T04:49:26;101050.69;;;10.95;36.67
60019;BME280;45870;42.528;26.740;2023-02-15T04:51:52;101052.13;;;10.84;37.26
60019;BME280;45870;42.528;26.740;2023-02-15T04:54:18;101047.88;;;11.29;35.95
60019;BME280;45870;42.528;26.740;2023-02-15T04:56:43;101052.63;;;11.08;36.26
60019;BME280;45870;42.528;26.740;2023-02-15T04:59:10;101044.78;;;11.45;35.76
60019;BME280;45870;42.528;26.740;2023-02-15T05:01:36;100971.69;;;9.85;37.98
60019;BME280;45870;42.528;26.740;2023-02-15T05:04:01;101058.06;;;11.47;36.08
60019;BME280;45870;42.528;26.740;2023-02-15T05:06:28;101064.81;;;10.90;37.39
60019;BME280;45870;42.528;26.740;2023-02-15T05:08:56;101044.91;;;11.05;36.64
60019;BME280;45870;42.528;26.740;2023-02-15T05:11:24;101067.03;;;11.61;35.79
60019;BME280;45870;42.528;26.740;2023-02-15T05:13:50;101073.97;;;9.86;39.44
60019;BME280;45870;42.528;26.740;2023-02-15T05:16:16;101050.78;;;10.61;37.78
60019;BME280;45870;42.528;26.740;2023-02-15T05:18:42;101035.81;;;11.32;36.44
60019;BME280;45870;42.528;26.740;2023-02-15T05:21:08;101068.94;;;11.86;35.19
60019;BME280;45870;42.528;26.740;2023-02-15T05:23:34;101075.34;;;12.18;34.99
60019;BME280;45870;42.528;26.740;2023-02-15T05:26:00;101083.38;;;11.13;35.95
60019;BME280;45870;42.528;26.740;2023-02-15T05:28:44;101037.50;;;11.33;35.64
60019;BME280;45870;42.528;26.740;2023-02-15T05:31:12;101084.72;;;12.22;35.28
60019;BME280;45870;42.528;26.740;2023-02-15T05:33:39;101081.31;;;12.46;34.10
60019;BME280;45870;42.528;26.740;2023-02-15T05:36:05;101078.63;;;12.46;33.93
60019;BME280;45870;42.528;26.740;2023-02-15T05:38:31;101093.41;;;13.08;34.07
60019;BME280;45870;42.528;26.740;2023-02-15T05:40:57;101097.28;;;13.25;33.58
60019;BME280;45870;42.528;26.740;2023-02-15T05:43:24;101103.59;;;13.50;32.72
60019;BME280;45870;42.528;26.740;2023-02-15T05:45:53;101098.22;;;13.69;32.33
60019;BME280;45870;42.528;26.740;2023-02-15T05:48:20;101106.56;;;13.74;32.54
60019;BME280;45870;42.528;26.740;2023-02-15T05:50:46;101096.66;;;12.72;33.64
60019;BME280;45870;42.528;26.740;2023-02-15T05:53:21;101099.09;;;11.96;35.29
60019;BME280;45870;42.528;26.740;2023-02-15T05:55:47;101102.84;;;12.15;36.00
60019;BME280;45870;42.528;26.740;2023-02-15T05:58:12;101008.50;;;12.19;34.66
60019;BME280;45870;42.528;26.740;2023-02-15T06:00:38;101092.56;;;12.50;35.31
60019;BME280;45870;42.528;26.740;2023-02-15T06:03:03;101110.25;;;12.66;34.87
60019;BME280;45870;42.528;26.740;2023-02-15T06:05:29;101115.81;;;11.20;37.24
60019;BME280;45870;42.528;26.740;2023-02-15T06:07:55;100919.56;;;10.73;36.64
60019;BME280;45870;42.528;26.740;2023-02-15T06:10:20;101122.50;;;11.37;37.80
60019;BME280;45870;42.528;26.740;2023-02-15T06:12:46;101111.47;;;12.70;34.53
60019;BME280;45870;42.528;26.740;2023-02-15T06:15:12;101114.03;;;12.51;34.81
60019;BME280;45870;42.528;26.740;2023-02-15T06:17:41;101117.50;;;12.72;35.73
60019;BME280;45870;42.528;26.740;2023-02-15T06:20:07;101132.56;;;13.57;33.49
60019;BME280;45870;42.528;26.740;2023-02-15T06:22:34;101130.84;;;12.67;35.46
60019;BME280;45870;42.528;26.740;2023-02-15T06:24:59;101101.69;;;11.18;36.90
60019;BME280;45870;42.528;26.740;2023-02-15T06:27:25;101055.56;;;11.32;34.84
60019;BME280;45870;42.528;26.740;2023-02-15T06:29:51;101135.72;;;11.73;35.73
60019;BME280;45870;42.528;26.740;2023-02-15T06:32:16;101139.69;;;12.29;35.00
60019;BME280;45870;42.528;26.740;2023-02-15T06:34:42;101151.66;;;11.48;36.25
60019;BME280;45870;42.528;26.740;2023-02-15T06:37:08;101137.59;;;12.12;34.77
60019;BME280;45870;42.528;26.740;2023-02-15T06:39:34;101151.13;;;12.44;33.47
60019;BME280;45870;42.528;26.740;2023-02-15T06:41:59;101158.50;;;11.37;36.49
60019;BME280;45870;42.528;26.740;2023-02-15T06:44:25;101146.81;;;10.42;36.50
60019;BME280;45870;42.528;26.740;2023-02-15T06:46:51;101147.19;;;11.14;35.31
60019;BME280;45870;42.528;26.740;2023-02-15T06:49:17;101096.50;;;10.62;34.79
60019;BME280;45870;42.528;26.740;2023-02-15T06:51:42;101143.88;;;10.71;34.46
60019;BME280;45870;42.528;26.740;2023-02-15T06:54:11;101148.78;;;9.99;37.01
60019;BME280;45870;42.528;26.740;2023-02-15T06:56:37;101149.63;;;10.96;36.14
60019;BME280;45870;42.528;26.740;2023-02-15T06:59:04;101151.66;;;10.87;35.65
60019;BME280;45870;42.528;26.740;2023-02-15T07:01:29;101154.69;;;10.71;36.30
60019;BME280;45870;42.528;26.740;2023-02-15T07:03:55;101158.53;;;10.90;36.56
60019;BME280;45870;42.528;26.740;2023-02-15T07:06:21;101158.84;;;11.08;34.57
60019;BME280;45870;42.528;26.740;2023-02-15T07:08:46;101150.13;;;11.99;34.22
60019;BME280;45870;42.528;26.740;2023-02-15T07:11:12;101157.78;;;11.09;35.67
60019;BME280;45870;42.528;26.740;2023-02-15T07:13:56;101150.22;;;11.59;34.11
60019;BME280;45870;42.528;26.740;2023-02-15T07:16:22;101157.50;;;10.57;37.10
60019;BME280;45870;42.528;26.740;2023-02-15T07:18:47;101090.53;;;11.53;34.67
60019;BME280;45870;42.528;26.740;2023-02-15T07:21:13;101124.22;;;11.58;35.30
60019;BME280;45870;42.528;26.740;2023-02-15T07:23:39;101095.69;;;13.11;31.71
60019;BME280;45870;42.528;26.740;2023-02-15T07:26:05;101148.44;;;13.09;32.04
60019;BME280;45870;42.528;26.740;2023-02-15T07:28:32;101145.91;;;14.14;30.52
60019;BME280;45870;42.528;26.740;2023-02-15T07:30:58;101149.34;;;14.28;30.01
60019;BME280;45870;42.528;26.740;2023-02-15T07:33:24;101152.25;;;12.88;30.88
60019;BME280;45870;42.528;26.740;2023-02-15T07:35:51;101166.41;;;13.47;31.79
60019;BME280;45870;42.528;26.740;2023-02-15T07:38:18;100993.59;;;11.37;32.01
60019;BME280;45870;42.528;26.740;2023-02-15T07:40:44;101150.50;;;11.83;33.36
60019;BME280;45870;42.528;26.740;2023-02-15T07:43:11;101132.34;;;12.63;31.35
60019;BME280;45870;42.528;26.740;2023-02-15T07:45:37;101129.28;;;12.13;32.54
60019;BME280;45870;42.528;26.740;2023-02-15T07:48:03;101157.56;;;11.04;34.19
60019;BME280;45870;42.528;26.740;2023-02-15T07:50:30;101157.13;;;11.68;33.78
60019;BME280;45870;42.528;26.740;2023-02-15T07:52:56;100921.38;;;10.59;32.50
60019;BME280;45870;42.528;26.740;2023-02-15T07:55:21;101147.19;;;11.81;32.62
60019;BME280;45870;42.528;26.740;2023-02-15T07:57:49;101153.91;;;11.25;34.23
60019;BME280;45870;42.528;26.740;2023-02-15T08:00:19;101090.00;;;9.94;36.15
60019;BME280;45870;42.528;26.740;2023-02-15T08:02:50;101154.75;;;10.16;36.45
60019;BME280;45870;42.528;26.740;2023-02-15T08:05:35;101032.16;;;10.79;34.17
60019;BME280;45870;42.528;26.740;2023-02-15T08:08:01;101160.31;;;11.91;33.34
60019;BME280;45870;42.528;26.740;2023-02-15T08:10:27;101155.78;;;12.88;31.83
60019;BME280;45870;42.528;26.740;2023-02-15T08:13:12;101162.69;;;10.92;34.59
60019;BME280;45870;42.528;26.740;2023-02-15T08:15:38;101154.03;;;10.35;35.92
60019;BME280;45870;42.528;26.740;2023-02-15T08:18:04;101153.59;;;12.52;32.83
60019;BME280;45870;42.528;26.740;2023-02-15T08:20:29;101158.50;;;13.46;30.08
60019;BME280;45870;42.528;26.740;2023-02-15T08:22:55;101156.00;;;13.76;29.68
60019;BME280;45870;42.528;26.740;2023-02-15T08:25:21;101163.25;;;13.19;30.24
60019;BME280;45870;42.528;26.740;2023-02-15T08:27:46;101155.09;;;13.06;30.32
60019;BME280;45870;42.528;26.740;2023-02-15T08:30:13;101152.16;;;12.50;31.33
60019;BME280;45870;42.528;26.740;2023-02-15T08:32:39;101153.44;;;12.08;31.55
60019;BME280;45870;42.528;26.740;2023-02-15T08:35:05;101140.09;;;12.33;31.39
60019;BME280;45870;42.528;26.740;2023-02-15T08:37:31;101150.31;;;12.18;31.30
60019;BME280;45870;42.528;26.740;2023-02-15T08:39:57;101157.94;;;12.67;31.15
60019;BME280;45870;42.528;26.740;2023-02-15T08:42:23;101159.00;;;11.61;32.47
60019;BME280;45870;42.528;26.740;2023-02-15T08:44:48;101150.13;;;10.72;32.93
60019;BME280;45870;42.528;26.740;2023-02-15T08:47:15;101145.03;;;12.62;31.60
60019;BME280;45870;42.528;26.740;2023-02-15T08:49:41;101086.81;;;12.07;31.55
60019;BME280;45870;42.528;26.740;2023-02-15T08:52:06;101159.81;;;12.73;31.00
60019;BME280;45870;42.528;26.740;2023-02-15T08:54:32;101150.66;;;12.67;31.47
60019;BME280;45870;42.528;26.740;2023-02-15T08:56:58;101147.34;;;12.59;30.72
60019;BME280;45870;42.528;26.740;2023-02-15T08:59:24;101070.13;;;12.30;30.61
60019;BME280;45870;42.528;26.740;2023-02-15T09:01:52;101125.75;;;14.04;29.05
60019;BME280;45870;42.528;26.740;2023-02-15T09:04:19;101171.16;;;12.24;31.73
60019;BME280;45870;42.528;26.740;2023-02-15T09:06:47;101095.16;;;11.92;32.34
60019;BME280;45870;42.528;26.740;2023-02-15T09:09:13;101129.38;;;12.71;29.96
60019;BME280;45870;42.528;26.740;2023-02-15T09:11:41;101161.00;;;13.79;29.34
60019;BME280;45870;42.528;26.740;2023-02-15T09:14:13;101169.91;;;13.55;29.96
60019;BME280;45870;42.528;26.740;2023-02-15T09:16:40;101117.41;;;13.74;28.39
60019;BME280;45870;42.528;26.740;2023-02-15T09:19:06;101161.13;;;14.15;28.17
60019;BME280;45870;42.528;26.740;2023-02-15T09:21:35;101160.03;;;14.23;28.37
60019;BME280;45870;42.528;26.740;2023-02-15T09:24:07;101164.03;;;13.95;29.10
60019;BME280;45870;42.528;26.740;2023-02-15T09:26:36;101164.94;;;13.00;29.17
60019;BME280;45870;42.528;26.740;2023-02-15T09:29:02;100970.66;;;12.12;29.90
60019;BME280;45870;42.528;26.740;2023-02-15T09:31:36;101166.50;;;14.89;27.46
60019;BME280;45870;42.528;26.740;2023-02-15T09:34:03;101120.91;;;14.30;28.39
60019;BME280;45870;42.528;26.740;2023-02-15T09:36:30;101158.72;;;15.59;26.61
60019;BME280;45870;42.528;26.740;2023-02-15T09:49:58;101140.69;;;14.80;27.52
60019;BME280;45870;42.528;26.740;2023-02-15T10:01:04;101134.25;;;17.50;23.93
60019;BME280;45870;42.528;26.740;2023-02-15T10:09:02;101113.50;;;16.58;25.24
60019;BME280;45870;42.528;26.740;2023-02-15T10:23:00;101108.75;;;16.41;25.60
60019;BME280;45870;42.528;26.740;2023-02-15T10:31:27;101097.56;;;15.62;26.64
60019;BME280;45870;42.528;26.740;2023-02-15T10:34:07;101088.50;;;16.61;25.58
60019;BME280;45870;42.528;26.740;2023-02-15T10:45:20;101090.66;;;14.99;28.28
60019;BME280;45870;42.528;26.740;2023-02-15T10:50:30;101085.38;;;16.80;25.95
60019;BME280;45870;42.528;26.740;2023-02-15T11:01:34;101067.97;;;18.38;23.22
60019;BME280;45870;42.528;26.740;2023-02-15T11:04:07;101067.00;;;13.60;30.33
60019;BME280;45870;42.528;26.740;2023-02-15T11:06:38;101069.63;;;14.59;29.23
60019;BME280;45870;42.528;26.740;2023-02-15T11:09:10;101058.53;;;16.49;26.19
60019;BME280;45870;42.528;26.740;2023-02-15T11:11:40;101060.34;;;18.57;23.63
60019;BME280;45870;42.528;26.740;2023-02-15T11:14:19;101059.72;;;14.82;29.03
60019;BME280;45870;42.528;26.740;2023-02-15T11:16:54;101052.06;;;17.63;25.09
60019;BME280;45870;42.528;26.740;2023-02-15T11:19:30;101037.38;;;18.03;23.92
60019;BME280;45870;42.528;26.740;2023-02-15T11:22:00;101047.88;;;18.27;23.18
60019;BME280;45870;42.528;26.740;2023-02-15T11:24:30;101048.56;;;18.78;23.22
60019;BME280;45870;42.528;26.740;2023-02-15T11:27:14;101044.06;;;18.28;23.64
60019;BME280;45870;42.528;26.740;2023-02-15T11:30:09;101052.81;;;18.90;23.60
60019;BME280;45870;42.528;26.740;2023-02-15T11:32:39;101055.03;;;19.74;22.11
60019;BME280;45870;42.528;26.740;2023-02-15T11:37:58;101040.50;;;16.99;25.75
60019;BME280;45870;42.528;26.740;2023-02-15T11:40:29;101042.53;;;17.99;24.71
60019;BME280;45870;42.528;26.740;2023-02-15T11:42:58;100990.44;;;19.41;22.74
60019;BME280;45870;42.528;26.740;2023-02-15T11:45:28;101023.16;;;20.31;21.24
60019;BME280;45870;42.528;26.740;2023-02-15T11:47:55;101020.72;;;18.81;23.29
60019;BME280;45870;42.528;26.740;2023-02-15T11:50:27;101021.91;;;20.54;21.46
60019;BME280;45870;42.528;26.740;2023-02-15T11:53:02;101023.41;;;18.54;24.07
60019;BME280;45870;42.528;26.740;2023-02-15T11:55:30;101009.25;;;16.39;25.92
60019;BME280;45870;42.528;26.740;2023-02-15T11:58:26;101006.09;;;18.10;24.79
60019;BME280;45870;42.528;26.740;2023-02-15T12:01:07;101008.91;;;19.92;22.48
60019;BME280;45870;42.528;26.740;2023-02-15T12:03:57;101015.47;;;18.36;23.31
60019;BME280;45870;42.528;26.740;2023-02-15T12:06:27;100994.22;;;18.21;24.11
60019;BME280;45870;42.528;26.740;2023-02-15T12:08:59;101003.03;;;18.67;23.27
60019;BME280;45870;42.528;26.740;2023-02-15T12:11:36;100959.13;;;15.12;29.71
60019;BME280;45870;42.528;26.740;2023-02-15T12:14:05;100840.78;;;18.34;23.78
60019;BME280;45870;42.528;26.740;2023-02-15T12:16:46;100987.78;;;21.07;21.34
60019;BME280;45870;42.528;26.740;2023-02-15T12:19:29;100831.97;;;15.89;25.59
60019;BME280;45870;42.528;26.740;2023-02-15T12:21:58;100934.19;;;15.15;27.47
60019;BME280;45870;42.528;26.740;2023-02-15T12:24:28;100817.00;;;16.60;24.62
60019;BME280;45870;42.528;26.740;2023-02-15T12:27:02;100927.28;;;17.64;24.14
60019;BME280;45870;42.528;26.740;2023-02-15T12:29:41;100914.75;;;16.16;26.36
60019;BME280;45870;42.528;26.740;2023-02-15T12:32:22;100984.16;;;17.38;24.57
60019;BME280;45870;42.528;26.740;2023-02-15T12:34:51;100986.09;;;17.71;25.29
60019;BME280;45870;42.528;26.740;2023-02-15T12:37:23;100924.97;;;16.09;25.93
60019;BME280;45870;42.528;26.740;2023-02-15T12:39:54;100948.94;;;17.70;24.33
60019;BME280;45870;42.528;26.740;2023-02-15T12:42:20;100987.44;;;17.69;25.04
60019;BME280;45870;42.528;26.740;2023-02-15T12:44:53;100985.59;;;19.26;22.87
60019;BME280;45870;42.528;26.740;2023-02-15T12:47:20;100981.03;;;14.21;29.13
60019;BME280;45870;42.528;26.740;2023-02-15T12:50:08;100975.44;;;16.52;25.90
60019;BME280;45870;42.528;26.740;2023-02-15T12:52:37;100971.69;;;16.81;25.96
60019;BME280;45870;42.528;26.740;2023-02-15T12:57:43;100972.09;;;18.01;23.82
60019;BME280;45870;42.528;26.740;2023-02-15T13:02:49;100967.06;;;17.43;24.89
60019;BME280;45870;42.528;26.740;2023-02-15T13:07:58;100960.44;;;20.50;21.34
60019;BME280;45870;42.528;26.740;2023-02-15T13:12:55;100967.75;;;16.88;25.24
60019;BME280;45870;42.528;26.740;2023-02-15T13:15:44;100911.78;;;19.73;21.74
60019;BME280;45870;42.528;26.740;2023-02-15T13:20:53;100782.63;;;19.44;20.83
60019;BME280;45870;42.528;26.740;2023-02-15T13:23:30;100963.47;;;20.02;21.51
60019;BME280;45870;42.528;26.740;2023-02-15T13:25:59;100755.34;;;18.49;21.75
60019;BME280;45870;42.528;26.740;2023-02-15T13:28:41;100964.66;;;20.21;20.99
60019;BME280;45870;42.528;26.740;2023-02-15T13:31:15;100965.66;;;17.24;24.71
60019;BME280;45870;42.528;26.740;2023-02-15T13:33:46;100966.25;;;18.79;22.76
60019;BME280;45870;42.528;26.740;2023-02-15T13:36:37;100966.06;;;17.16;24.63
60019;BME280;45870;42.528;26.740;2023-02-15T13:39:09;100960.97;;;16.91;25.16
60019;BME280;45870;42.528;26.740;2023-02-15T13:44:30;100957.97;;;18.96;22.74
60019;BME280;45870;42.528;26.740;2023-02-15T13:55:57;100918.03;;;20.93;20.70
60019;BME280;45870;42.528;26.740;2023-02-15T14:07:10;100964.94;;;19.77;21.95
60019;BME280;45870;42.528;26.740;2023-02-15T14:12:37;100961.75;;;18.25;23.73
60019;BME280;45870;42.528;26.740;2023-02-15T14:20:51;100960.53;;;15.79;26.95
60019;BME280;45870;42.528;26.740;2023-02-15T14:26:21;100908.56;;;16.89;25.52
60019;BME280;45870;42.528;26.740;2023-02-15T14:31:32;100956.56;;;17.68;24.62
60019;BME280;45870;42.528;26.740;2023-02-15T14:33:59;100958.28;;;17.24;25.67
60019;BME280;45870;42.528;26.740;2023-02-15T14:36:27;100959.56;;;18.92;23.77
60019;BME280;45870;42.528;26.740;2023-02-15T14:42:15;100956.72;;;20.24;21.65
60019;BME280;45870;42.528;26.740;2023-02-15T14:44:49;100956.44;;;20.93;20.46
60019;BME280;45870;42.528;26.740;2023-02-15T14:47:35;100950.16;;;21.94;19.74
60019;BME280;45870;42.528;26.740;2023-02-15T14:53:15;100958.66;;;22.02;19.28
60019;BME280;45870;42.528;26.740;2023-02-15T14:55:41;100933.44;;;21.55;19.57
60019;BME280;45870;42.528;26.740;2023-02-15T14:58:12;100962.50;;;21.86;19.14
60019;BME280;45870;42.528;26.740;2023-02-15T15:00:40;100788.19;;;20.42;19.91
60019;BME280;45870;42.528;26.740;2023-02-15T15:03:18;100773.34;;;20.28;19.74
60019;BME280;45870;42.528;26.740;2023-02-15T15:05:53;100965.84;;;21.27;19.71
60019;BME280;45870;42.528;26.740;2023-02-15T15:08:33;100951.34;;;20.39;20.86
60019;BME280;45870;42.528;26.740;2023-02-15T15:13:58;100973.13;;;19.40;22.26
60019;BME280;45870;42.528;26.740;2023-02-15T15:16:47;100978.94;;;19.81;21.82
60019;BME280;45870;42.528;26.740;2023-02-15T15:22:22;100982.56;;;19.91;21.84
60019;BME280;45870;42.528;26.740;2023-02-15T15:24:54;100904.47;;;19.10;22.00
60019;BME280;45870;42.528;26.740;2023-02-15T15:27:44;100981.41;;;18.65;23.05